sensor_id;sensor_type;location;lat;lon;timestamp;temperature;humidity
52211;DHT22;38179;52.756;6.906;2023-02-28T00:00:23;3.20;99.90
52211;DHT22;38179;52.756;6.906;2023-02-28T00:02:49;3.20;99.90
52211;DHT22;38179;52.756;6.906;2023-02-28T00:05:17;3.20;99.90
52211;DHT22;38179;52.756;6.906;2023-02-28T00:07:44;3.20;99.90
52211;DHT22;38179;52.756;6.906;2023-02-28T00:10:13;3.20;99.90
52211;DHT22;38179;52.756;6.906;2023-02-28T00:12:40;3.20;99.90
52211;DHT22;38179;52.756;6.906;2023-02-28T00:15:07;3.20;99.90
52211;DHT22;38179;52.756;6.906;2023-02-28T00:17:33;3.20;99.90
52211;DHT22;38179;52.756;6.906;2023-02-28T00:19:59;3.20;99.90
52211;DHT22;38179;52.756;6.906;2023-02-28T00:22:39;3.10;99.90
52211;DHT22;38179;52.756;6.906;2023-02-28T00:25:07;3.10;99.90
52211;DHT22;38179;52.756;6.906;2023-02-28T00:27:34;3.20;99.90
52211;DHT22;38179;52.756;6.906;2023-02-28T00:30:01;3.10;99.90
52211;DHT22;38179;52.756;6.906;2023-02-28T00:32:27;3.10;99.90
52211;DHT22;38179;52.756;6.906;2023-02-28T00:34:53;3.10;99.90
52211;DHT22;38179;52.756;6.906;2023-02-28T00:37:19;3.20;99.90
52211;DHT22;38179;52.756;6.906;2023-02-28T00:39:45;3.10;99.90
52211;DHT22;38179;52.756;6.906;2023-02-28T00:42:10;3.10;99.90
52211;DHT22;38179;52.756;6.906;2023-02-28T00:44:36;3.10;99.90
52211;DHT22;38179;52.756;6.906;2023-02-28T00:47:02;3.10;99.90
52211;DHT22;38179;52.756;6.906;2023-02-28T00:49:28;3.10;99.90
52211;DHT22;38179;52.756;6.906;2023-02-28T00:51:55;3.10;99.90
52211;DHT22;38179;52.756;6.906;2023-02-28T00:54:21;3.10;99.90
52211;DHT22;38179;52.756;6.906;2023-02-28T00:56:48;3.10;99.90
52211;DHT22;38179;52.756;6.906;2023-02-28T00:59:15;3.10;99.90
52211;DHT22;38179;52.756;6.906;2023-02-28T01:01:42;3.10;99.90
52211;DHT22;38179;52.756;6.906;2023-02-28T01:04:08;3.10;99.90
52211;DHT22;38179;52.756;6.906;2023-02-28T01:06:34;3.10;99.90
52211;DHT22;38179;52.756;6.906;2023-02-28T01:09:00;3.10;99.90
52211;DHT22;38179;52.756;6.906;2023-02-28T01:11:26;3.10;99.90
52211;DHT22;38179;52.756;6.906;2023-02-28T01:13:52;3.10;99.90
52211;DHT22;38179;52.756;6.906;2023-02-28T01:16:18;3.10;99.90
52211;DHT22;38179;52.756;6.906;2023-02-28T01:18:44;3.10;99.90
52211;DHT22;38179;52.756;6.906;2023-02-28T01:21:13;3.10;99.90
52211;DHT22;38179;52.756;6.906;2023-02-28T01:23:43;3.10;99.90
52211;DHT22;38179;52.756;6.906;2023-02-28T01:26:14;3.10;99.90
52211;DHT22;38179;52.756;6.906;2023-02-28T01:28:40;3.10;99.90
52211;DHT22;38179;52.756;6.906;2023-02-28T01:31:07;3.10;99.90
52211;DHT22;38179;52.756;6.906;2023-02-28T01:33:34;3.10;99.90
52211;DHT22;38179;52.756;6.906;2023-02-28T01:36:14;3.10;99.90
52211;DHT22;38179;52.756;6.906;2023-02-28T01:38:40;3.10;99.90
52211;DHT22;38179;52.756;6.906;2023-02-28T01:41:07;3.10;99.90
52211;DHT22;38179;52.756;6.906;2023-02-28T01:46:09;3.00;99.90
52211;DHT22;38179;52.756;6.906;2023-02-28T01:48:38;3.00;99.90
52211;DHT22;38179;52.756;6.906;2023-02-28T01:51:10;3.00;99.90
52211;DHT22;38179;52.756;6.906;2023-02-28T01:53:59;3.00;99.90
52211;DHT22;38179;52.756;6.906;2023-02-28T01:56:29;3.00;99.90
52211;DHT22;38179;52.756;6.906;2023-02-28T01:58:56;3.10;99.90
52211;DHT22;38179;52.756;6.906;2023-02-28T02:01:23;3.10;99.90
52211;DHT22;38179;52.756;6.906;2023-02-28T02:03:55;3.10;99.90
52211;DHT22;38179;52.756;6.906;2023-02-28T02:06:36;3.00;99.90
52211;DHT22;38179;52.756;6.906;2023-02-28T02:09:03;3.00;99.90
52211;DHT22;38179;52.756;6.906;2023-02-28T02:11:28;2.90;99.90
52211;DHT22;38179;52.756;6.906;2023-02-28T02:23:02;3.00;99.90
52211;DHT22;38179;52.756;6.906;2023-02-28T02:25:53;3.00;99.90
52211;DHT22;38179;52.756;6.906;2023-02-28T02:41:54;2.90;99.90
52211;DHT22;38179;52.756;6.906;2023-02-28T02:44:27;2.90;99.90
52211;DHT22;38179;52.756;6.906;2023-02-28T02:47:09;2.90;99.90
52211;DHT22;38179;52.756;6.906;2023-02-28T02:49:37;2.90;99.90
52211;DHT22;38179;52.756;6.906;2023-02-28T02:52:07;2.90;99.90
52211;DHT22;38179;52.756;6.906;2023-02-28T02:54:34;2.90;99.90
52211;DHT22;38179;52.756;6.906;2023-02-28T02:57:04;2.90;99.90
52211;DHT22;38179;52.756;6.906;2023-02-28T02:59:32;2.90;99.90
52211;DHT22;38179;52.756;6.906;2023-02-28T03:02:04;2.90;99.90
52211;DHT22;38179;52.756;6.906;2023-02-28T03:04:37;2.90;99.90
52211;DHT22;38179;52.756;6.906;2023-02-28T03:07:05;2.90;99.90
52211;DHT22;38179;52.756;6.906;2023-02-28T03:09:33;2.90;99.90
52211;DHT22;38179;52.756;6.906;2023-02-28T03:12:01;2.90;99.90
52211;DHT22;38179;52.756;6.906;2023-02-28T03:17:16;2.80;99.90
52211;DHT22;38179;52.756;6.906;2023-02-28T03:26:06;2.80;99.90
52211;DHT22;38179;52.756;6.906;2023-02-28T03:33:42;2.90;99.90
52211;DHT22;38179;52.756;6.906;2023-02-28T03:36:16;2.90;99.90
52211;DHT22;38179;52.756;6.906;2023-02-28T03:38:59;2.90;99.90
52211;DHT22;38179;52.756;6.906;2023-02-28T03:41:40;2.80;99.90
52211;DHT22;38179;52.756;6.906;2023-02-28T03:44:13;2.80;99.90
52211;DHT22;38179;52.756;6.906;2023-02-28T03:50:03;2.70;99.90
52211;DHT22;38179;52.756;6.906;2023-02-28T03:52:30;2.60;99.90
52211;DHT22;38179;52.756;6.906;2023-02-28T03:55:02;2.60;99.90
52211;DHT22;38179;52.756;6.906;2023-02-28T03:57:58;2.60;99.90
52211;DHT22;38179;52.756;6.906;2023-02-28T04:00:42;2.60;99.90
52211;DHT22;38179;52.756;6.906;2023-02-28T04:03:10;2.60;99.90
52211;DHT22;38179;52.756;6.906;2023-02-28T04:05:52;2.60;99.90
52211;DHT22;38179;52.756;6.906;2023-02-28T04:08:19;2.60;99.90
52211;DHT22;38179;52.756;6.906;2023-02-28T04:10:51;2.50;99.90
52211;DHT22;38179;52.756;6.906;2023-02-28T04:13:18;2.60;99.90
52211;DHT22;38179;52.756;6.906;2023-02-28T04:15:44;2.50;99.90
52211;DHT22;38179;52.756;6.906;2023-02-28T04:18:10;2.50;99.90
52211;DHT22;38179;52.756;6.906;2023-02-28T04:20:36;2.50;99.90
52211;DHT22;38179;52.756;6.906;2023-02-28T04:23:02;2.50;99.90
52211;DHT22;38179;52.756;6.906;2023-02-28T04:25:28;2.60;99.90
52211;DHT22;38179;52.756;6.906;2023-02-28T04:27:54;2.60;99.90
52211;DHT22;38179;52.756;6.906;2023-02-28T04:30:20;2.60;99.90
52211;DHT22;38179;52.756;6.906;2023-02-28T04:32:46;2.60;99.90
52211;DHT22;38179;52.756;6.906;2023-02-28T04:35:12;2.60;99.90
52211;DHT22;38179;52.756;6.906;2023-02-28T04:37:37;2.60;99.90
52211;DHT22;38179;52.756;6.906;2023-02-28T04:40:05;2.50;99.90
52211;DHT22;38179;52.756;6.906;2023-02-28T04:45:08;2.50;99.90
52211;DHT22;38179;52.756;6.906;2023-02-28T04:47:36;2.50;99.90
52211;DHT22;38179;52.756;6.906;2023-02-28T04:50:02;2.50;99.90
52211;DHT22;38179;52.756;6.906;2023-02-28T04:52:29;2.50;99.90
52211;DHT22;38179;52.756;6.906;2023-02-28T04:54:55;2.50;99.90
52211;DHT22;38179;52.756;6.906;2023-02-28T04:57:21;2.40;99.90
52211;DHT22;38179;52.756;6.906;2023-02-28T04:59:47;2.50;99.90
52211;DHT22;38179;52.756;6.906;2023-02-28T05:02:12;2.50;99.90
52211;DHT22;38179;52.756;6.906;2023-02-28T05:04:38;2.50;99.90
52211;DHT22;38179;52.756;6.906;2023-02-28T05:07:05;2.50;99.90
52211;DHT22;38179;52.756;6.906;2023-02-28T05:09:32;2.50;99.90
52211;DHT22;38179;52.756;6.906;2023-02-28T05:11:58;2.50;99.90
52211;DHT22;38179;52.756;6.906;2023-02-28T05:14:27;2.50;99.90
52211;DHT22;38179;52.756;6.906;2023-02-28T05:16:53;2.50;99.90
52211;DHT22;38179;52.756;6.906;2023-02-28T05:19:19;2.50;99.90
52211;DHT22;38179;52.756;6.906;2023-02-28T05:21:54;2.50;99.90
52211;DHT22;38179;52.756;6.906;2023-02-28T05:24:20;2.50;99.90
52211;DHT22;38179;52.756;6.906;2023-02-28T05:26:50;2.60;99.90
52211;DHT22;38179;52.756;6.906;2023-02-28T05:29:17;2.60;99.90
52211;DHT22;38179;52.756;6.906;2023-02-28T05:31:43;2.60;99.90
52211;DHT22;38179;52.756;6.906;2023-02-28T05:34:09;2.60;99.90
52211;DHT22;38179;52.756;6.906;2023-02-28T05:36:38;2.60;99.90
52211;DHT22;38179;52.756;6.906;2023-02-28T05:39:06;2.60;99.90
52211;DHT22;38179;52.756;6.906;2023-02-28T05:41:41;2.60;99.90
52211;DHT22;38179;52.756;6.906;2023-02-28T05:44:07;2.60;99.90
52211;DHT22;38179;52.756;6.906;2023-02-28T05:46:33;2.60;99.90
52211;DHT22;38179;52.756;6.906;2023-02-28T05:48:59;2.60;99.90
52211;DHT22;38179;52.756;6.906;2023-02-28T05:51:26;2.60;99.90
52211;DHT22;38179;52.756;6.906;2023-02-28T05:53:52;2.60;99.90
52211;DHT22;38179;52.756;6.906;2023-02-28T05:56:18;2.60;99.90
52211;DHT22;38179;52.756;6.906;2023-02-28T05:58:43;2.60;99.90
52211;DHT22;38179;52.756;6.906;2023-02-28T06:01:22;2.60;99.90
52211;DHT22;38179;52.756;6.906;2023-02-28T06:03:48;2.60;99.90
52211;DHT22;38179;52.756;6.906;2023-02-28T06:06:14;2.60;99.90
52211;DHT22;38179;52.756;6.906;2023-02-28T06:08:40;2.50;99.90
52211;DHT22;38179;52.756;6.906;2023-02-28T06:11:06;2.50;99.90
52211;DHT22;38179;52.756;6.906;2023-02-28T06:13:32;2.50;99.90
52211;DHT22;38179;52.756;6.906;2023-02-28T06:16:01;2.50;99.90
52211;DHT22;38179;52.756;6.906;2023-02-28T06:18:27;2.50;99.90
52211;DHT22;38179;52.756;6.906;2023-02-28T06:20:53;2.50;99.90
52211;DHT22;38179;52.756;6.906;2023-02-28T06:23:20;2.50;99.90
52211;DHT22;38179;52.756;6.906;2023-02-28T06:25:47;2.50;99.90
52211;DHT22;38179;52.756;6.906;2023-02-28T06:28:14;2.40;99.90
52211;DHT22;38179;52.756;6.906;2023-02-28T06:30:40;2.40;99.90
52211;DHT22;38179;52.756;6.906;2023-02-28T06:33:06;2.40;99.90
52211;DHT22;38179;52.756;6.906;2023-02-28T06:35:32;2.40;99.90
52211;DHT22;38179;52.756;6.906;2023-02-28T06:37:58;2.40;99.90
52211;DHT22;38179;52.756;6.906;2023-02-28T06:40:24;2.40;99.90
52211;DHT22;38179;52.756;6.906;2023-02-28T06:42:49;2.40;99.90
52211;DHT22;38179;52.756;6.906;2023-02-28T06:45:15;2.50;99.90
52211;DHT22;38179;52.756;6.906;2023-02-28T06:47:41;2.50;99.90
52211;DHT22;38179;52.756;6.906;2023-02-28T06:50:12;2.50;99.90
52211;DHT22;38179;52.756;6.906;2023-02-28T06:52:38;2.50;99.90
52211;DHT22;38179;52.756;6.906;2023-02-28T06:55:06;2.50;99.90
52211;DHT22;38179;52.756;6.906;2023-02-28T06:57:33;2.50;99.90
52211;DHT22;38179;52.756;6.906;2023-02-28T07:00:01;2.50;99.90
52211;DHT22;38179;52.756;6.906;2023-02-28T07:02:28;2.50;99.90
52211;DHT22;38179;52.756;6.906;2023-02-28T07:04:54;2.50;99.90
52211;DHT22;38179;52.756;6.906;2023-02-28T07:07:20;2.50;99.90
52211;DHT22;38179;52.756;6.906;2023-02-28T07:09:46;2.50;99.90
52211;DHT22;38179;52.756;6.906;2023-02-28T07:12:12;2.50;99.90
52211;DHT22;38179;52.756;6.906;2023-02-28T07:14:38;2.40;99.90
52211;DHT22;38179;52.756;6.906;2023-02-28T07:17:06;2.50;99.90
52211;DHT22;38179;52.756;6.906;2023-02-28T07:19:32;2.40;99.90
52211;DHT22;38179;52.756;6.906;2023-02-28T07:21:58;2.50;99.90
52211;DHT22;38179;52.756;6.906;2023-02-28T07:24:25;2.40;99.90
52211;DHT22;38179;52.756;6.906;2023-02-28T07:26:54;2.40;99.90
52211;DHT22;38179;52.756;6.906;2023-02-28T07:29:20;2.40;99.90
52211;DHT22;38179;52.756;6.906;2023-02-28T07:31:46;2.40;99.90
52211;DHT22;38179;52.756;6.906;2023-02-28T07:34:13;2.30;99.90
52211;DHT22;38179;52.756;6.906;2023-02-28T07:36:39;2.30;99.90
52211;DHT22;38179;52.756;6.906;2023-02-28T07:39:05;2.30;99.90
52211;DHT22;38179;52.756;6.906;2023-02-28T07:41:31;2.30;99.90
52211;DHT22;38179;52.756;6.906;2023-02-28T07:44:00;2.30;99.90
52211;DHT22;38179;52.756;6.906;2023-02-28T07:46:26;2.40;99.90
52211;DHT22;38179;52.756;6.906;2023-02-28T07:48:52;2.40;99.90
52211;DHT22;38179;52.756;6.906;2023-02-28T07:51:19;2.40;99.90
52211;DHT22;38179;52.756;6.906;2023-02-28T07:53:46;2.40;99.90
52211;DHT22;38179;52.756;6.906;2023-02-28T07:56:12;2.50;99.90
52211;DHT22;38179;52.756;6.906;2023-02-28T07:58:38;2.50;99.90
52211;DHT22;38179;52.756;6.906;2023-02-28T08:01:09;2.50;99.90
52211;DHT22;38179;52.756;6.906;2023-02-28T08:03:35;2.50;99.90
52211;DHT22;38179;52.756;6.906;2023-02-28T08:06:03;2.60;99.90
52211;DHT22;38179;52.756;6.906;2023-02-28T08:08:29;2.60;99.90
52211;DHT22;38179;52.756;6.906;2023-02-28T08:11:00;2.60;99.90
52211;DHT22;38179;52.756;6.906;2023-02-28T08:13:28;2.60;99.90
52211;DHT22;38179;52.756;6.906;2023-02-28T08:15:54;2.70;99.90
52211;DHT22;38179;52.756;6.906;2023-02-28T08:18:22;2.70;99.90
52211;DHT22;38179;52.756;6.906;2023-02-28T08:20:48;2.70;99.90
52211;DHT22;38179;52.756;6.906;2023-02-28T08:23:14;2.60;99.90
52211;DHT22;38179;52.756;6.906;2023-02-28T08:25:40;2.70;99.90
52211;DHT22;38179;52.756;6.906;2023-02-28T08:28:06;2.70;99.90
52211;DHT22;38179;52.756;6.906;2023-02-28T08:30:32;2.70;99.90
52211;DHT22;38179;52.756;6.906;2023-02-28T08:32:57;2.60;99.90
52211;DHT22;38179;52.756;6.906;2023-02-28T08:35:23;2.60;99.90
52211;DHT22;38179;52.756;6.906;2023-02-28T08:37:49;2.60;99.90
52211;DHT22;38179;52.756;6.906;2023-02-28T08:40:16;2.70;99.90
52211;DHT22;38179;52.756;6.906;2023-02-28T08:42:47;2.80;99.90
52211;DHT22;38179;52.756;6.906;2023-02-28T08:45:14;2.80;99.90
52211;DHT22;38179;52.756;6.906;2023-02-28T08:47:41;4.20;99.90
52211;DHT22;38179;52.756;6.906;2023-02-28T08:50:08;2.90;99.90
52211;DHT22;38179;52.756;6.906;2023-02-28T08:52:34;3.00;99.90
52211;DHT22;38179;52.756;6.906;2023-02-28T08:55:00;3.00;99.90
52211;DHT22;38179;52.756;6.906;2023-02-28T08:57:26;3.00;99.90
52211;DHT22;38179;52.756;6.906;2023-02-28T08:59:52;3.00;99.90
52211;DHT22;38179;52.756;6.906;2023-02-28T09:02:18;3.10;99.90
52211;DHT22;38179;52.756;6.906;2023-02-28T09:04:45;3.20;99.90
52211;DHT22;38179;52.756;6.906;2023-02-28T09:07:11;3.20;99.90
52211;DHT22;38179;52.756;6.906;2023-02-28T09:09:37;3.30;99.90
52211;DHT22;38179;52.756;6.906;2023-02-28T09:12:22;3.30;99.90
52211;DHT22;38179;52.756;6.906;2023-02-28T09:14:48;3.40;99.90
52211;DHT22;38179;52.756;6.906;2023-02-28T09:17:14;3.40;99.90
52211;DHT22;38179;52.756;6.906;2023-02-28T09:19:40;3.40;99.90
52211;DHT22;38179;52.756;6.906;2023-02-28T09:22:06;3.40;99.90
52211;DHT22;38179;52.756;6.906;2023-02-28T09:24:32;3.40;99.90
52211;DHT22;38179;52.756;6.906;2023-02-28T09:26:58;3.50;99.90
52211;DHT22;38179;52.756;6.906;2023-02-28T09:29:24;3.60;99.90
52211;DHT22;38179;52.756;6.906;2023-02-28T09:31:50;3.60;99.90
52211;DHT22;38179;52.756;6.906;2023-02-28T09:34:16;3.70;99.90
52211;DHT22;38179;52.756;6.906;2023-02-28T09:36:43;3.70;99.90
52211;DHT22;38179;52.756;6.906;2023-02-28T09:39:09;3.80;99.90
52211;DHT22;38179;52.756;6.906;2023-02-28T09:41:43;3.80;99.90
52211;DHT22;38179;52.756;6.906;2023-02-28T09:44:33;3.80;99.90
52211;DHT22;38179;52.756;6.906;2023-02-28T09:47:41;3.80;99.90
52211;DHT22;38179;52.756;6.906;2023-02-28T09:50:22;3.90;99.90
52211;DHT22;38179;52.756;6.906;2023-02-28T09:52:50;4.00;99.90
52211;DHT22;38179;52.756;6.906;2023-02-28T09:57:45;4.00;99.90
52211;DHT22;38179;52.756;6.906;2023-02-28T10:00:31;4.00;99.90
52211;DHT22;38179;52.756;6.906;2023-02-28T10:05:35;4.20;99.90
52211;DHT22;38179;52.756;6.906;2023-02-28T10:08:09;4.20;99.90
52211;DHT22;38179;52.756;6.906;2023-02-28T10:10:41;4.30;99.90
52211;DHT22;38179;52.756;6.906;2023-02-28T10:16:10;4.40;99.90
52211;DHT22;38179;52.756;6.906;2023-02-28T10:18:46;4.50;99.90
52211;DHT22;38179;52.756;6.906;2023-02-28T10:21:31;4.50;99.90
52211;DHT22;38179;52.756;6.906;2023-02-28T10:26:58;4.50;99.90
52211;DHT22;38179;52.756;6.906;2023-02-28T10:29:26;4.50;99.90
52211;DHT22;38179;52.756;6.906;2023-02-28T10:31:52;4.50;99.90
52211;DHT22;38179;52.756;6.906;2023-02-28T10:34:17;4.60;99.90
52211;DHT22;38179;52.756;6.906;2023-02-28T10:36:44;4.50;99.90
52211;DHT22;38179;52.756;6.906;2023-02-28T10:39:35;4.70;99.90
52211;DHT22;38179;52.756;6.906;2023-02-28T10:42:05;4.80;99.90
52211;DHT22;38179;52.756;6.906;2023-02-28T10:44:43;5.00;99.90
52211;DHT22;38179;52.756;6.906;2023-02-28T10:47:17;5.00;99.90
52211;DHT22;38179;52.756;6.906;2023-02-28T10:49:49;5.10;99.90
52211;DHT22;38179;52.756;6.906;2023-02-28T10:52:37;5.20;99.90
52211;DHT22;38179;52.756;6.906;2023-02-28T10:55:23;5.10;99.90
52211;DHT22;38179;52.756;6.906;2023-02-28T10:57:51;5.10;99.90
52211;DHT22;38179;52.756;6.906;2023-02-28T11:02:47;5.10;99.90
52211;DHT22;38179;52.756;6.906;2023-02-28T11:05:35;5.10;99.90
52211;DHT22;38179;52.756;6.906;2023-02-28T11:08:16;5.30;99.90
52211;DHT22;38179;52.756;6.906;2023-02-28T11:10:54;5.40;99.90
52211;DHT22;38179;52.756;6.906;2023-02-28T11:13:21;5.50;99.90
52211;DHT22;38179;52.756;6.906;2023-02-28T11:15:53;5.60;99.90
52211;DHT22;38179;52.756;6.906;2023-02-28T11:18:36;5.70;99.90
52211;DHT22;38179;52.756;6.906;2023-02-28T11:21:04;5.70;99.90
52211;DHT22;38179;52.756;6.906;2023-02-28T11:23:32;5.70;99.90
52211;DHT22;38179;52.756;6.906;2023-02-28T11:26:01;5.80;99.90
52211;DHT22;38179;52.756;6.906;2023-02-28T11:28:33;5.90;99.90
52211;DHT22;38179;52.756;6.906;2023-02-28T11:33:53;6.00;99.90
52211;DHT22;38179;52.756;6.906;2023-02-28T11:36:29;5.90;99.90
52211;DHT22;38179;52.756;6.906;2023-02-28T11:39:09;6.00;99.90
52211;DHT22;38179;52.756;6.906;2023-02-28T11:41:58;6.00;99.90
52211;DHT22;38179;52.756;6.906;2023-02-28T11:52:53;6.20;99.90
52211;DHT22;38179;52.756;6.906;2023-02-28T11:58:05;6.20;99.90
52211;DHT22;38179;52.756;6.906;2023-02-28T12:06:06;5.80;99.90
52211;DHT22;38179;52.756;6.906;2023-02-28T12:09:13;5.90;99.90
52211;DHT22;38179;52.756;6.906;2023-02-28T12:11:55;5.90;99.90
52211;DHT22;38179;52.756;6.906;2023-02-28T12:18:02;5.80;99.90
52211;DHT22;38179;52.756;6.906;2023-02-28T12:20:38;5.80;99.90
52211;DHT22;38179;52.756;6.906;2023-02-28T12:26:14;5.80;99.90
52211;DHT22;38179;52.756;6.906;2023-02-28T12:28:46;5.70;99.90
52211;DHT22;38179;52.756;6.906;2023-02-28T12:31:25;5.70;99.90
52211;DHT22;38179;52.756;6.906;2023-02-28T12:33:56;5.70;99.90
52211;DHT22;38179;52.756;6.906;2023-02-28T12:36:22;5.70;99.90
52211;DHT22;38179;52.756;6.906;2023-02-28T12:39:01;5.70;99.90
52211;DHT22;38179;52.756;6.906;2023-02-28T12:41:37;5.80;99.90
52211;DHT22;38179;52.756;6.906;2023-02-28T12:44:18;5.80;99.90
52211;DHT22;38179;52.756;6.906;2023-02-28T12:46:51;5.90;99.90
52211;DHT22;38179;52.756;6.906;2023-02-28T12:49:23;5.90;99.90
52211;DHT22;38179;52.756;6.906;2023-02-28T12:51:51;6.00;99.90
52211;DHT22;38179;52.756;6.906;2023-02-28T12:57:06;6.00;99.90
52211;DHT22;38179;52.756;6.906;2023-02-28T13:10:46;6.70;99.90
52211;DHT22;38179;52.756;6.906;2023-02-28T13:13:19;6.70;99.90
52211;DHT22;38179;52.756;6.906;2023-02-28T13:16:05;6.70;99.90
52211;DHT22;38179;52.756;6.906;2023-02-28T13:21:04;6.80;99.90
52211;DHT22;38179;52.756;6.906;2023-02-28T13:24:02;6.90;99.90
52211;DHT22;38179;52.756;6.906;2023-02-28T13:34:38;6.80;99.90
52211;DHT22;38179;52.756;6.906;2023-02-28T13:39:56;6.70;99.90
52211;DHT22;38179;52.756;6.906;2023-02-28T13:47:40;6.80;99.90
52211;DHT22;38179;52.756;6.906;2023-02-28T13:56:18;6.70;99.90
52211;DHT22;38179;52.756;6.906;2023-02-28T13:59:12;6.60;99.90
52211;DHT22;38179;52.756;6.906;2023-02-28T14:02:03;6.60;99.90
52211;DHT22;38179;52.756;6.906;2023-02-28T14:05:15;6.50;99.90
52211;DHT22;38179;52.756;6.906;2023-02-28T14:07:53;6.50;99.90
52211;DHT22;38179;52.756;6.906;2023-02-28T14:10:30;6.60;99.90
52211;DHT22;38179;52.756;6.906;2023-02-28T14:15:49;6.60;99.90
52211;DHT22;38179;52.756;6.906;2023-02-28T14:18:30;6.60;99.90
52211;DHT22;38179;52.756;6.906;2023-02-28T14:27:03;6.50;99.90
52211;DHT22;38179;52.756;6.906;2023-02-28T14:37:32;6.50;99.90
52211;DHT22;38179;52.756;6.906;2023-02-28T14:40:00;6.50;99.90
52211;DHT22;38179;52.756;6.906;2023-02-28T14:44:56;6.40;99.90
52211;DHT22;38179;52.756;6.906;2023-02-28T14:47:25;6.40;99.90
52211;DHT22;38179;52.756;6.906;2023-02-28T14:49:52;6.40;99.90
52211;DHT22;38179;52.756;6.906;2023-02-28T14:52:27;6.50;99.90
52211;DHT22;38179;52.756;6.906;2023-02-28T14:54:56;6.50;99.90
52211;DHT22;38179;52.756;6.906;2023-02-28T14:57:24;6.50;99.90
52211;DHT22;38179;52.756;6.906;2023-02-28T15:00:06;6.50;99.90
52211;DHT22;38179;52.756;6.906;2023-02-28T15:02:38;6.50;99.90
52211;DHT22;38179;52.756;6.906;2023-02-28T15:08:03;6.40;99.90
52211;DHT22;38179;52.756;6.906;2023-02-28T15:10:29;6.30;99.90
52211;DHT22;38179;52.756;6.906;2023-02-28T15:12:57;6.30;99.90
52211;DHT22;38179;52.756;6.906;2023-02-28T15:20:51;6.20;99.90
52211;DHT22;38179;52.756;6.906;2023-02-28T15:23:19;6.20;99.90
52211;DHT22;38179;52.756;6.906;2023-02-28T15:25:47;6.20;99.90
52211;DHT22;38179;52.756;6.906;2023-02-28T15:28:18;6.20;99.90
52211;DHT22;38179;52.756;6.906;2023-02-28T15:33:25;6.10;99.90
52211;DHT22;38179;52.756;6.906;2023-02-28T15:36:11;6.10;99.90
52211;DHT22;38179;52.756;6.906;2023-02-28T15:38:38;6.00;99.90
52211;DHT22;38179;52.756;6.906;2023-02-28T15:41:04;6.00;99.90
52211;DHT22;38179;52.756;6.906;2023-02-28T15:43:38;6.10;99.90
52211;DHT22;38179;52.756;6.906;2023-02-28T15:46:12;6.00;99.90
52211;DHT22;38179;52.756;6.906;2023-02-28T15:48:53;6.00;99.90
52211;DHT22;38179;52.756;6.906;2023-02-28T15:51:27;6.00;99.90
52211;DHT22;38179;52.756;6.906;2023-02-28T15:54:01;6.00;99.90
52211;DHT22;38179;52.756;6.906;2023-02-28T15:56:32;6.00;99.90
52211;DHT22;38179;52.756;6.906;2023-02-28T15:59:07;5.90;99.90
52211;DHT22;38179;52.756;6.906;2023-02-28T16:01:36;6.00;99.90
52211;DHT22;38179;52.756;6.906;2023-02-28T16:04:13;6.00;99.90
52211;DHT22;38179;52.756;6.906;2023-02-28T16:06:41;6.00;99.90
52211;DHT22;38179;52.756;6.906;2023-02-28T16:09:15;6.10;99.90
52211;DHT22;38179;52.756;6.906;2023-02-28T16:11:53;6.10;99.90
52211;DHT22;38179;52.756;6.906;2023-02-28T16:14:25;6.10;99.90
52211;DHT22;38179;52.756;6.906;2023-02-28T16:17:06;6.00;99.90
52211;DHT22;38179;52.756;6.906;2023-02-28T16:19:34;5.90;99.90
52211;DHT22;38179;52.756;6.906;2023-02-28T16:22:00;5.90;99.90
52211;DHT22;38179;52.756;6.906;2023-02-28T16:24:26;5.90;99.90
52211;DHT22;38179;52.756;6.906;2023-02-28T16:26:54;5.80;99.90
52211;DHT22;38179;52.756;6.906;2023-02-28T16:29:30;5.70;99.90
52211;DHT22;38179;52.756;6.906;2023-02-28T16:31:56;5.70;99.90
52211;DHT22;38179;52.756;6.906;2023-02-28T16:34:23;5.60;99.90
52211;DHT22;38179;52.756;6.906;2023-02-28T16:36:49;5.60;99.90
52211;DHT22;38179;52.756;6.906;2023-02-28T16:39:16;5.50;99.90
52211;DHT22;38179;52.756;6.906;2023-02-28T16:41:45;5.50;99.90
52211;DHT22;38179;52.756;6.906;2023-02-28T16:44:25;5.50;99.90
52211;DHT22;38179;52.756;6.906;2023-02-28T16:46:52;5.40;99.90
52211;DHT22;38179;52.756;6.906;2023-02-28T16:49:18;5.40;99.90
52211;DHT22;38179;52.756;6.906;2023-02-28T16:51:44;5.30;99.90
52211;DHT22;38179;52.756;6.906;2023-02-28T16:54:10;5.30;99.90
52211;DHT22;38179;52.756;6.906;2023-02-28T16:56:45;5.20;99.90
52211;DHT22;38179;52.756;6.906;2023-02-28T16:59:12;5.20;99.90
52211;DHT22;38179;52.756;6.906;2023-02-28T17:01:39;5.10;99.90
52211;DHT22;38179;52.756;6.906;2023-02-28T17:04:05;5.00;99.90
52211;DHT22;38179;52.756;6.906;2023-02-28T17:06:31;5.00;99.90
52211;DHT22;38179;52.756;6.906;2023-02-28T17:08:58;5.00;99.90
52211;DHT22;38179;52.756;6.906;2023-02-28T17:11:25;4.80;99.90
52211;DHT22;38179;52.756;6.906;2023-02-28T17:13:51;4.80;99.90
52211;DHT22;38179;52.756;6.906;2023-02-28T17:16:32;4.70;99.90
52211;DHT22;38179;52.756;6.906;2023-02-28T17:19:06;4.60;99.90
52211;DHT22;38179;52.756;6.906;2023-02-28T17:21:33;4.60;99.90
52211;DHT22;38179;52.756;6.906;2023-02-28T17:24:00;4.60;99.90
52211;DHT22;38179;52.756;6.906;2023-02-28T17:26:26;4.60;99.90
52211;DHT22;38179;52.756;6.906;2023-02-28T17:28:54;4.50;99.90
52211;DHT22;38179;52.756;6.906;2023-02-28T17:31:23;4.50;99.90
52211;DHT22;38179;52.756;6.906;2023-02-28T17:33:50;4.50;99.90
52211;DHT22;38179;52.756;6.906;2023-02-28T17:36:24;4.50;99.90
52211;DHT22;38179;52.756;6.906;2023-02-28T17:38:52;4.40;99.90
52211;DHT22;38179;52.756;6.906;2023-02-28T17:41:19;4.40;99.90
52211;DHT22;38179;52.756;6.906;2023-02-28T17:43:44;4.30;99.90
52211;DHT22;38179;52.756;6.906;2023-02-28T17:46:18;4.30;99.90
52211;DHT22;38179;52.756;6.906;2023-02-28T17:48:49;4.20;99.90
52211;DHT22;38179;52.756;6.906;2023-02-28T17:51:17;4.20;99.90
52211;DHT22;38179;52.756;6.906;2023-02-28T17:53:44;4.10;99.90
52211;DHT22;38179;52.756;6.906;2023-02-28T17:56:15;4.10;99.90
52211;DHT22;38179;52.756;6.906;2023-02-28T17:58:42;4.00;99.90
52211;DHT22;38179;52.756;6.906;2023-02-28T18:01:08;4.10;99.90
52211;DHT22;38179;52.756;6.906;2023-02-28T18:03:34;4.00;99.90
52211;DHT22;38179;52.756;6.906;2023-02-28T18:06:00;4.00;99.90
52211;DHT22;38179;52.756;6.906;2023-02-28T18:08:27;4.10;99.90
52211;DHT22;38179;52.756;6.906;2023-02-28T18:10:53;4.00;99.90
52211;DHT22;38179;52.756;6.906;2023-02-28T18:13:19;4.00;99.90
52211;DHT22;38179;52.756;6.906;2023-02-28T18:15:44;4.00;99.90
52211;DHT22;38179;52.756;6.906;2023-02-28T18:18:10;4.00;99.90
52211;DHT22;38179;52.756;6.906;2023-02-28T18:20:36;4.00;99.90
52211;DHT22;38179;52.756;6.906;2023-02-28T18:23:02;3.90;99.90
52211;DHT22;38179;52.756;6.906;2023-02-28T18:25:28;3.90;99.90
52211;DHT22;38179;52.756;6.906;2023-02-28T18:27:54;3.80;99.90
52211;DHT22;38179;52.756;6.906;2023-02-28T18:30:28;3.80;99.90
52211;DHT22;38179;52.756;6.906;2023-02-28T18:32:58;3.70;99.90
52211;DHT22;38179;52.756;6.906;2023-02-28T18:35:28;3.70;99.90